Time;durP1;ratioP1;P1;durP2;ratioP2;P2;SDS_P1;SDS_P2;PMS_P1;PMS_P2;Temp;Humidity;BMP_temperature;BMP_pressure;BME280_temperature;BME280_humidity;BME280_pressure;Samples;Min_cycle;Max_cycle;Signal;HPM_P1;HPM_P2
2023/07/23 00:00:12;;;;;;;5.40;3.97;;;;;;;;;;6314967;28;20048;-83
2023/07/23 00:03:15;;;;;;;6.20;3.45;;;;;;;;;;6311474;28;20051;-83
2023/07/23 00:06:17;;;;;;;5.10;3.67;;;;;;;;;;6289901;28;20066;-83
2023/07/23 00:09:18;;;;;;;5.43;3.40;;;;;;;;;;6294296;28;20132;-83
2023/07/23 00:12:20;;;;;;;4.57;3.50;;;;;;;;;;6299092;28;20040;-83
2023/07/23 00:15:22;;;;;;;6.53;3.92;;;;;;;;;;6316656;28;20113;-83
2023/07/23 00:18:23;;;;;;;5.55;3.75;;;;;;;;;;6311512;28;20044;-83
2023/07/23 00:21:25;;;;;;;5.15;3.65;;;;;;;;;;6314527;28;20058;-83
2023/07/23 00:24:27;;;;;;;5.23;3.77;;;;;;;;;;6313891;28;20071;-82
2023/07/23 00:27:29;;;;;;;6.07;3.90;;;;;;;;;;6314538;28;20770;-83
2023/07/23 00:30:31;;;;;;;7.13;3.92;;;;;;;;;;6321215;28;20054;-83
2023/07/23 00:33:33;;;;;;;7.22;3.65;;;;;;;;;;6320359;28;20092;-82
2023/07/23 00:36:34;;;;;;;5.05;3.05;;;;;;;;;;6311164;28;20429;-82
2023/07/23 00:39:37;;;;;;;6.70;3.47;;;;;;;;;;6318198;28;20060;-82
2023/07/23 00:42:38;;;;;;;4.75;3.30;;;;;;;;;;6311051;28;20634;-82
2023/07/23 00:45:40;;;;;;;5.30;3.75;;;;;;;;;;6311825;28;20048;-83
2023/07/23 00:48:42;;;;;;;6.95;3.83;;;;;;;;;;6288529;28;20055;-82
2023/07/23 00:51:44;;;;;;;4.80;3.70;;;;;;;;;;6318737;28;20102;-82
2023/07/23 00:54:45;;;;;;;11.23;3.90;;;;;;;;;;6316027;28;20047;-83
2023/07/23 00:57:47;;;;;;;6.63;3.90;;;;;;;;;;6309004;28;20044;-83
2023/07/23 01:00:50;;;;;;;7.25;4.15;;;;;;;;;;6289784;28;20041;-83
2023/07/23 01:03:52;;;;;;;8.00;4.13;;;;;;;;;;6301280;28;20109;-84
2023/07/23 01:06:58;;;;;;;7.07;3.92;;;;;;;;;;6289449;28;20071;-84
2023/07/23 01:10:02;;;;;;;5.63;3.55;;;;;;;;;;6273427;28;20044;-83
2023/07/23 01:13:06;;;;;;;7.90;3.95;;;;;;;;;;6290980;28;20048;-84
2023/07/23 01:16:09;;;;;;;7.50;4.25;;;;;;;;;;6314560;28;20070;-83
2023/07/23 01:19:14;;;;;;;6.10;4.13;;;;;;;;;;6293477;28;20118;-83
2023/07/23 01:22:16;;;;;;;5.55;3.75;;;;;;;;;;6305532;28;20048;-83
2023/07/23 01:25:18;;;;;;;8.40;3.97;;;;;;;;;;6317455;28;20064;-83
2023/07/23 01:28:19;;;;;;;5.72;4.00;;;;;;;;;;6295663;28;20047;-84
2023/07/23 01:31:21;;;;;;;6.78;4.20;;;;;;;;;;6308834;28;20051;-83
2023/07/23 01:34:24;;;;;;;6.93;4.25;;;;;;;;;;6295063;28;20040;-83
2023/07/23 01:37:25;;;;;;;5.65;3.95;;;;;;;;;;6294178;28;20048;-84
2023/07/23 01:40:27;;;;;;;6.28;3.90;;;;;;;;;;6298202;28;20046;-84
2023/07/23 01:43:29;;;;;;;6.57;3.85;;;;;;;;;;6308472;28;20036;-81
2023/07/23 01:46:31;;;;;;;7.18;3.78;;;;;;;;;;6297883;28;20044;-82
2023/07/23 01:49:33;;;;;;;6.65;3.78;;;;;;;;;;6281188;28;20036;-83
2023/07/23 01:52:35;;;;;;;5.85;3.88;;;;;;;;;;6311828;28;20044;-82
2023/07/23 01:55:36;;;;;;;5.85;3.80;;;;;;;;;;6312053;28;20048;-82
2023/07/23 01:58:38;;;;;;;7.80;4.00;;;;;;;;;;6313092;28;20044;-83
2023/07/23 02:01:40;;;;;;;8.30;4.07;;;;;;;;;;6318580;28;20064;-83
2023/07/23 02:04:41;;;;;;;6.80;4.25;;;;;;;;;;6312505;28;20043;-82
2023/07/23 02:07:43;;;;;;;6.00;4.40;;;;;;;;;;6297337;28;20079;-82
2023/07/23 02:10:45;;;;;;;6.30;4.37;;;;;;;;;;6299987;28;20506;-82
2023/07/23 02:13:47;;;;;;;6.85;4.47;;;;;;;;;;6296639;28;20051;-82
2023/07/23 02:16:49;;;;;;;7.72;4.70;;;;;;;;;;6311567;28;20044;-81
2023/07/23 02:19:51;;;;;;;7.07;4.45;;;;;;;;;;6314667;28;20513;-83
2023/07/23 02:22:52;;;;;;;5.63;3.70;;;;;;;;;;6310379;28;20059;-83
2023/07/23 02:25:54;;;;;;;7.28;4.53;;;;;;;;;;6314774;28;20108;-82
2023/07/23 02:28:56;;;;;;;6.97;4.20;;;;;;;;;;6315457;28;20134;-82
2023/07/23 02:31:57;;;;;;;8.75;4.22;;;;;;;;;;6298867;28;20501;-81
2023/07/23 02:35:00;;;;;;;6.18;4.38;;;;;;;;;;6290894;28;20040;-83
2023/07/23 02:38:02;;;;;;;5.93;4.22;;;;;;;;;;6299626;28;20037;-82
2023/07/23 02:41:03;;;;;;;6.70;4.00;;;;;;;;;;6313027;28;20054;-81
2023/07/23 02:44:05;;;;;;;7.47;4.63;;;;;;;;;;6292358;28;20048;-82
2023/07/23 02:47:07;;;;;;;7.47;4.47;;;;;;;;;;6312721;28;20044;-82
2023/07/23 02:50:09;;;;;;;5.88;4.25;;;;;;;;;;6293688;28;20040;-82
2023/07/23 02:53:10;;;;;;;6.55;4.13;;;;;;;;;;6298179;28;20055;-82
2023/07/23 02:56:12;;;;;;;6.65;4.20;;;;;;;;;;6310768;28;20055;-82
2023/07/23 02:59:14;;;;;;;7.63;4.20;;;;;;;;;;6304574;28;20044;-83
2023/07/23 03:02:16;;;;;;;6.68;4.35;;;;;;;;;;6301552;28;20051;-82
2023/07/23 03:05:18;;;;;;;8.18;3.65;;;;;;;;;;6315917;28;20037;-82
2023/07/23 03:08:20;;;;;;;7.70;4.30;;;;;;;;;;6308733;28;20048;-83
2023/07/23 03:11:22;;;;;;;6.68;3.97;;;;;;;;;;6312182;28;20552;-81
2023/07/23 03:14:23;;;;;;;7.20;4.22;;;;;;;;;;6301313;28;20045;-81
2023/07/23 03:17:26;;;;;;;6.40;4.05;;;;;;;;;;6296334;28;20040;-84
2023/07/23 03:20:28;;;;;;;8.23;4.55;;;;;;;;;;6288909;28;20055;-84
2023/07/23 03:23:30;;;;;;;5.53;3.70;;;;;;;;;;6317940;28;20044;-83
2023/07/23 03:26:32;;;;;;;6.82;4.03;;;;;;;;;;6279648;28;20074;-84
2023/07/23 03:29:34;;;;;;;6.03;4.28;;;;;;;;;;6310653;28;20133;-84
2023/07/23 03:32:35;;;;;;;6.25;4.20;;;;;;;;;;6312801;28;20051;-83
2023/07/23 03:35:37;;;;;;;6.28;4.35;;;;;;;;;;6305527;28;20067;-80
2023/07/23 03:38:38;;;;;;;6.13;3.95;;;;;;;;;;6308733;28;20047;-80
2023/07/23 03:41:40;;;;;;;6.13;3.83;;;;;;;;;;6301494;28;20551;-80
2023/07/23 03:44:42;;;;;;;5.65;4.22;;;;;;;;;;6304227;28;20395;-81
2023/07/23 03:47:44;;;;;;;7.03;3.97;;;;;;;;;;6306943;28;20079;-80
2023/07/23 03:50:45;;;;;;;7.15;4.10;;;;;;;;;;6272933;28;20051;-81
2023/07/23 03:53:47;;;;;;;5.63;4.00;;;;;;;;;;6306988;28;20039;-79
2023/07/23 03:56:49;;;;;;;6.43;3.80;;;;;;;;;;6319854;28;20068;-80
2023/07/23 03:59:51;;;;;;;7.55;4.00;;;;;;;;;;6321133;28;20047;-79
2023/07/23 04:02:52;;;;;;;5.45;3.85;;;;;;;;;;6288575;28;20535;-80
2023/07/23 04:05:56;;;;;;;8.95;4.50;;;;;;;;;;6311743;28;20055;-80
2023/07/23 04:08:57;;;;;;;7.00;4.10;;;;;;;;;;6324900;28;20036;-78
2023/07/23 04:12:00;;;;;;;5.85;3.90;;;;;;;;;;6299516;28;20135;-79
2023/07/23 04:15:03;;;;;;;9.43;4.35;;;;;;;;;;6285430;28;20036;-78
2023/07/23 04:18:12;;;;;;;6.68;4.10;;;;;;;;;;6302999;28;20052;-79
2023/07/23 04:21:16;;;;;;;7.97;3.85;;;;;;;;;;6283122;28;20048;-79
2023/07/23 04:24:17;;;;;;;6.40;4.20;;;;;;;;;;6306530;28;20032;-79
2023/07/23 04:27:19;;;;;;;6.90;4.00;;;;;;;;;;6288425;28;20070;-79
2023/07/23 04:30:21;;;;;;;6.25;3.92;;;;;;;;;;6287485;28;20559;-81
2023/07/23 04:33:22;;;;;;;5.95;3.55;;;;;;;;;;6290531;28;20051;-81
2023/07/23 04:36:24;;;;;;;6.60;4.03;;;;;;;;;;6285677;28;20052;-79
2023/07/23 04:39:26;;;;;;;6.55;4.50;;;;;;;;;;6286839;28;20040;-79
2023/07/23 04:42:27;;;;;;;5.60;3.75;;;;;;;;;;6297861;28;20102;-79
2023/07/23 04:45:30;;;;;;;6.00;4.03;;;;;;;;;;6303454;28;20072;-81
2023/07/23 04:48:33;;;;;;;5.93;3.75;;;;;;;;;;6305095;28;20120;-81
2023/07/23 04:51:35;;;;;;;7.30;4.00;;;;;;;;;;6303770;28;20420;-80
2023/07/23 04:54:36;;;;;;;5.50;3.50;;;;;;;;;;6285832;28;20044;-81
2023/07/23 04:57:38;;;;;;;6.07;3.90;;;;;;;;;;6298915;28;20072;-78
2023/07/23 05:00:40;;;;;;;6.50;3.88;;;;;;;;;;6289530;28;20098;-80
2023/07/23 05:03:41;;;;;;;6.63;3.95;;;;;;;;;;6285624;28;20098;-80
2023/07/23 05:06:43;;;;;;;5.28;4.07;;;;;;;;;;6282280;28;20048;-80
2023/07/23 05:09:45;;;;;;;6.82;4.32;;;;;;;;;;6304410;28;20044;-78
2023/07/23 05:12:46;;;;;;;5.63;4.00;;;;;;;;;;6304286;28;20150;-80
2023/07/23 05:15:48;;;;;;;8.05;4.22;;;;;;;;;;6285125;28;20506;-80
2023/07/23 05:18:50;;;;;;;8.00;4.25;;;;;;;;;;6285092;28;20497;-79
2023/07/23 05:21:53;;;;;;;6.32;3.75;;;;;;;;;;6295763;28;20040;-79
2023/07/23 05:24:55;;;;;;;5.53;4.00;;;;;;;;;;6304059;28;20048;-79
2023/07/23 05:27:56;;;;;;;5.07;3.60;;;;;;;;;;6300916;28;20047;-81
2023/07/23 05:30:59;;;;;;;7.30;3.80;;;;;;;;;;6297444;28;20032;-80
2023/07/23 05:34:00;;;;;;;7.57;4.32;;;;;;;;;;6272680;28;20043;-80
2023/07/23 05:37:02;;;;;;;7.55;4.10;;;;;;;;;;6303560;28;20076;-79
2023/07/23 05:40:05;;;;;;;6.40;4.13;;;;;;;;;;6302330;28;20059;-79
2023/07/23 05:43:08;;;;;;;6.50;4.43;;;;;;;;;;6299980;28;20039;-80
2023/07/23 05:46:10;;;;;;;7.43;4.55;;;;;;;;;;6299180;28;20044;-79
2023/07/23 05:49:12;;;;;;;8.52;4.75;;;;;;;;;;6305154;28;20119;-79
2023/07/23 05:52:14;;;;;;;7.13;4.55;;;;;;;;;;6281757;28;20055;-82
2023/07/23 05:55:16;;;;;;;7.80;4.80;;;;;;;;;;6295813;28;20683;-81
2023/07/23 05:58:18;;;;;;;7.00;4.75;;;;;;;;;;6299042;28;20048;-80
2023/07/23 06:01:19;;;;;;;7.45;4.05;;;;;;;;;;6303140;28;20394;-80
2023/07/23 06:04:21;;;;;;;5.90;3.83;;;;;;;;;;6301205;28;20047;-81
2023/07/23 06:07:23;;;;;;;6.47;4.07;;;;;;;;;;6299752;28;20052;-81
2023/07/23 06:10:25;;;;;;;7.80;4.05;;;;;;;;;;6305340;28;20055;-81
2023/07/23 06:13:26;;;;;;;5.25;3.72;;;;;;;;;;6299354;28;20118;-81
2023/07/23 06:16:32;;;;;;;7.00;3.55;;;;;;;;;;6294851;28;20634;-81
2023/07/23 06:19:33;;;;;;;6.47;3.28;;;;;;;;;;6302097;28;20662;-80
2023/07/23 06:22:35;;;;;;;5.18;2.85;;;;;;;;;;6298690;28;20052;-81
2023/07/23 06:25:37;;;;;;;4.47;3.33;;;;;;;;;;6284137;28;20440;-81
2023/07/23 06:28:39;;;;;;;3.50;2.90;;;;;;;;;;6283639;28;20048;-81
2023/07/23 06:31:40;;;;;;;4.00;2.90;;;;;;;;;;6264854;28;20105;-79
2023/07/23 06:34:42;;;;;;;3.83;3.03;;;;;;;;;;6309881;28;20052;-80
2023/07/23 06:37:44;;;;;;;5.30;2.97;;;;;;;;;;6284671;28;20068;-79
2023/07/23 06:40:47;;;;;;;4.97;2.80;;;;;;;;;;6304803;28;20052;-80
2023/07/23 06:43:48;;;;;;;3.40;2.55;;;;;;;;;;6307198;28;20049;-79
2023/07/23 06:46:50;;;;;;;3.97;2.97;;;;;;;;;;6308309;28;20087;-79
2023/07/23 06:49:53;;;;;;;5.87;3.13;;;;;;;;;;6303498;28;20123;-78
2023/07/23 06:52:54;;;;;;;5.43;3.00;;;;;;;;;;6305311;28;20520;-79
2023/07/23 06:55:57;;;;;;;6.50;3.15;;;;;;;;;;6301372;28;20048;-79
2023/07/23 06:58:58;;;;;;;4.20;2.70;;;;;;;;;;6309510;28;20044;-79
2023/07/23 07:02:01;;;;;;;4.18;2.78;;;;;;;;;;6311797;28;20418;-79
2023/07/23 07:05:02;;;;;;;4.93;2.77;;;;;;;;;;6287625;28;20040;-80
2023/07/23 07:08:04;;;;;;;5.73;2.63;;;;;;;;;;6280290;28;20041;-78
2023/07/23 07:11:09;;;;;;;3.30;2.67;;;;;;;;;;6289079;28;20051;-79
2023/07/23 07:14:12;;;;;;;5.85;2.70;;;;;;;;;;6308809;28;20126;-79
2023/07/23 07:17:13;;;;;;;3.33;2.70;;;;;;;;;;6284993;28;20511;-80
2023/07/23 07:20:15;;;;;;;3.05;2.58;;;;;;;;;;6301273;28;20051;-80
2023/07/23 07:23:17;;;;;;;4.57;2.60;;;;;;;;;;6294545;28;20044;-80
2023/07/23 07:26:18;;;;;;;4.60;2.60;;;;;;;;;;6293047;28;20059;-79
2023/07/23 07:29:21;;;;;;;4.05;2.20;;;;;;;;;;6325335;28;20091;-78
2023/07/23 07:32:22;;;;;;;3.75;2.40;;;;;;;;;;6306388;28;20051;-80
2023/07/23 07:35:25;;;;;;;4.18;2.10;;;;;;;;;;6312188;28;20080;-79
2023/07/23 07:38:27;;;;;;;;;;;;;;;;;;6307120;28;20205;-80
2023/07/23 07:41:29;;;;;;;3.40;2.05;;;;;;;;;;6301741;28;19931;-78
2023/07/23 07:44:31;;;;;;;4.43;2.30;;;;;;;;;;6307148;28;20123;-79
2023/07/23 07:47:35;;;;;;;4.82;2.33;;;;;;;;;;6310364;28;20046;-80
2023/07/23 07:50:38;;;;;;;3.95;2.40;;;;;;;;;;6304889;28;20052;-80
2023/07/23 07:53:40;;;;;;;4.35;2.45;;;;;;;;;;6298794;28;20124;-79
2023/07/23 07:56:43;;;;;;;3.70;2.20;;;;;;;;;;6295554;28;20429;-78
2023/07/23 07:59:45;;;;;;;4.88;2.30;;;;;;;;;;6289815;28;21754;-79
2023/07/23 08:02:47;;;;;;;4.73;2.17;;;;;;;;;;6302667;28;20043;-79
2023/07/23 08:05:49;;;;;;;3.60;2.25;;;;;;;;;;6290764;28;20051;-80
2023/07/23 08:08:52;;;;;;;4.00;2.10;;;;;;;;;;6307161;28;20052;-79
2023/07/23 08:11:55;;;;;;;6.38;2.60;;;;;;;;;;6306243;28;20047;-79
2023/07/23 08:14:58;;;;;;;3.40;2.50;;;;;;;;;;6306522;28;20055;-78
2023/07/23 08:18:00;;;;;;;2.90;2.10;;;;;;;;;;6311485;28;20044;-79
2023/07/23 08:21:02;;;;;;;3.40;2.35;;;;;;;;;;6304239;28;20036;-79
2023/07/23 08:24:04;;;;;;;4.53;2.50;;;;;;;;;;6286441;28;20744;-81
2023/07/23 08:27:07;;;;;;;3.17;2.47;;;;;;;;;;6280249;28;20957;-81
2023/07/23 08:30:09;;;;;;;2.55;2.10;;;;;;;;;;6270203;28;20439;-81
2023/07/23 08:33:12;;;;;;;2.75;2.30;;;;;;;;;;6296501;28;20056;-78
2023/07/23 08:36:15;;;;;;;4.65;2.53;;;;;;;;;;6305254;28;20060;-79
2023/07/23 08:39:18;;;;;;;7.50;2.40;;;;;;;;;;6298723;28;20047;-78
2023/07/23 08:42:55;;;;;;;3.67;2.30;;;;;;;;;;6295734;28;20115;-79
2023/07/23 08:46:24;;;;;;;4.13;2.42;;;;;;;;;;6261016;28;20085;-81
2023/07/23 08:49:27;;;;;;;3.60;2.30;;;;;;;;;;6297953;28;20067;-79
2023/07/23 08:52:30;;;;;;;;;;;;;;;;;;6295956;28;20048;-79
2023/07/23 08:55:33;;;;;;;2.25;1.80;;;;;;;;;;6298100;28;20010;-78
2023/07/23 08:58:36;;;;;;;2.60;2.20;;;;;;;;;;6301446;28;20144;-80
2023/07/23 09:01:40;;;;;;;5.10;2.63;;;;;;;;;;6287369;28;20205;-78
2023/07/23 09:04:42;;;;;;;2.90;2.25;;;;;;;;;;6284813;28;20052;-80
2023/07/23 09:07:44;;;;;;;3.80;2.30;;;;;;;;;;6289132;28;20068;-80
2023/07/23 09:10:45;;;;;;;3.08;2.50;;;;;;;;;;6285414;28;20052;-81
2023/07/23 09:13:47;;;;;;;4.43;2.65;;;;;;;;;;6295416;28;20052;-80
2023/07/23 09:16:49;;;;;;;3.88;2.55;;;;;;;;;;6293707;28;20125;-82
2023/07/23 09:19:53;;;;;;;4.47;2.95;;;;;;;;;;6297444;28;20074;-81
2023/07/23 09:23:04;;;;;;;4.78;2.80;;;;;;;;;;6279481;28;20051;-80
2023/07/23 09:26:08;;;;;;;3.78;2.65;;;;;;;;;;6294546;28;20073;-80
2023/07/23 09:29:11;;;;;;;4.82;2.30;;;;;;;;;;6294362;28;20040;-80
2023/07/23 09:32:23;;;;;;;;;;;;;;;;;;6301879;28;20048;-82
2023/07/23 09:35:29;;;;;;;4.55;2.53;;;;;;;;;;6284670;28;19928;-81
2023/07/23 09:38:32;;;;;;;3.67;2.03;;;;;;;;;;6294366;28;20047;-79
2023/07/23 09:41:36;;;;;;;2.88;2.30;;;;;;;;;;6278288;28;20923;-78
2023/07/23 09:44:42;;;;;;;2.45;2.13;;;;;;;;;;6299534;28;20068;-80
2023/07/23 09:47:44;;;;;;;3.70;2.33;;;;;;;;;;6280286;28;21483;-81
2023/07/23 09:50:49;;;;;;;2.58;2.30;;;;;;;;;;6295706;28;20410;-78
2023/07/23 09:53:51;;;;;;;2.58;2.30;;;;;;;;;;6293240;28;20047;-79
2023/07/23 09:56:53;;;;;;;2.93;2.50;;;;;;;;;;6297038;28;20346;-77
2023/07/23 09:59:57;;;;;;;4.32;2.28;;;;;;;;;;6280854;28;20473;-79
2023/07/23 10:03:00;;;;;;;4.45;2.53;;;;;;;;;;6297644;28;20051;-79
2023/07/23 10:06:03;;;;;;;4.38;2.45;;;;;;;;;;6297914;28;20101;-80
2023/07/23 10:09:06;;;;;;;2.93;2.37;;;;;;;;;;6310117;28;20416;-81
2023/07/23 10:12:08;;;;;;;5.32;2.40;;;;;;;;;;6302790;28;20051;-79
2023/07/23 10:15:10;;;;;;;4.20;2.50;;;;;;;;;;6306958;28;20607;-81
2023/07/23 10:18:12;;;;;;;3.15;2.17;;;;;;;;;;6304168;28;20043;-81
2023/07/23 10:21:15;;;;;;;3.75;2.40;;;;;;;;;;6291489;28;20044;-82
2023/07/23 10:24:17;;;;;;;3.90;2.45;;;;;;;;;;6307147;28;20068;-79
2023/07/23 10:27:19;;;;;;;3.30;2.30;;;;;;;;;;6302020;28;20056;-79
2023/07/23 10:30:21;;;;;;;4.75;2.40;;;;;;;;;;6305687;28;20060;-79
2023/07/23 10:33:26;;;;;;;5.18;2.55;;;;;;;;;;6290560;28;20487;-79
2023/07/23 10:36:28;;;;;;;3.25;2.40;;;;;;;;;;6304564;28;20063;-80
2023/07/23 10:39:39;;;;;;;3.28;2.45;;;;;;;;;;6301416;28;20044;-80
2023/07/23 10:42:44;;;;;;;3.28;2.33;;;;;;;;;;6299160;28;20159;-80
2023/07/23 10:46:02;;;;;;;9.30;2.60;;;;;;;;;;6287771;28;20032;-80
2023/07/23 10:49:04;;;;;;;4.10;2.60;;;;;;;;;;6277681;28;20041;-80
2023/07/23 10:52:13;;;;;;;3.87;2.33;;;;;;;;;;6299755;28;20050;-80
2023/07/23 10:55:48;;;;;;;3.22;2.30;;;;;;;;;;6296404;28;20121;-80
2023/07/23 10:58:50;;;;;;;3.05;1.95;;;;;;;;;;6250553;28;20040;-78
2023/07/23 11:01:53;;;;;;;4.05;2.53;;;;;;;;;;6282741;28;20040;-79
2023/07/23 11:04:57;;;;;;;4.18;2.75;;;;;;;;;;6275365;28;20040;-77
2023/07/23 11:08:26;;;;;;;4.43;2.90;;;;;;;;;;6301617;28;20506;-79
2023/07/23 11:11:42;;;;;;;2.55;2.15;;;;;;;;;;6291720;28;20067;-78
2023/07/23 11:14:45;;;;;;;5.93;3.10;;;;;;;;;;6297254;28;20048;-78
2023/07/23 11:17:46;;;;;;;4.10;2.70;;;;;;;;;;6286312;28;20044;-78
2023/07/23 11:21:05;;;;;;;2.50;1.90;;;;;;;;;;6287885;28;20072;-78
2023/07/23 11:24:08;;;;;;;3.38;2.40;;;;;;;;;;6279951;28;20051;-78
2023/07/23 11:27:10;;;;;;;5.45;2.47;;;;;;;;;;6293630;28;20536;-76
2023/07/23 11:30:15;;;;;;;3.60;2.20;;;;;;;;;;6285467;28;20055;-77
2023/07/23 11:33:20;;;;;;;2.85;2.22;;;;;;;;;;6267074;28;20036;-78
2023/07/23 11:36:21;;;;;;;4.18;2.10;;;;;;;;;;6296490;28;20060;-78
2023/07/23 11:39:24;;;;;;;2.35;1.65;;;;;;;;;;6285528;28;20414;-79
2023/07/23 11:42:26;;;;;;;3.20;2.30;;;;;;;;;;6300753;28;20969;-78
2023/07/23 11:45:28;;;;;;;2.42;1.60;;;;;;;;;;6302626;28;20041;-78
2023/07/23 11:48:30;;;;;;;2.28;1.70;;;;;;;;;;6302504;28;20051;-80
2023/07/23 11:51:33;;;;;;;2.10;1.65;;;;;;;;;;6298409;28;20128;-78
2023/07/23 11:54:35;;;;;;;4.10;2.10;;;;;;;;;;6302819;28;20117;-78
2023/07/23 11:57:37;;;;;;;2.13;1.77;;;;;;;;;;6295789;28;20055;-78
2023/07/23 12:00:39;;;;;;;1.95;1.70;;;;;;;;;;6300555;28;20807;-78
2023/07/23 12:03:43;;;;;;;3.33;2.15;;;;;;;;;;6296476;28;20044;-78
2023/07/23 12:06:45;;;;;;;2.25;1.70;;;;;;;;;;6282215;28;20060;-79
2023/07/23 12:09:46;;;;;;;3.00;2.00;;;;;;;;;;6283117;28;20052;-77
2023/07/23 12:12:49;;;;;;;2.90;1.90;;;;;;;;;;6295032;28;20446;-78
2023/07/23 12:15:54;;;;;;;3.83;2.00;;;;;;;;;;6274596;28;20040;-78
2023/07/23 12:19:01;;;;;;;2.15;1.88;;;;;;;;;;6280837;28;20450;-79
2023/07/23 12:22:03;;;;;;;2.10;1.58;;;;;;;;;;6298392;28;20136;-78
2023/07/23 12:25:05;;;;;;;3.77;1.50;;;;;;;;;;6296421;28;20036;-76
2023/07/23 12:28:08;;;;;;;3.42;1.77;;;;;;;;;;6319296;28;20453;-78
2023/07/23 12:31:09;;;;;;;;;;;;;;;;;;6294141;28;20044;-79
2023/07/23 12:34:12;;;;;;;1.90;1.63;;;;;;;;;;6299876;28;19920;-78
2023/07/23 12:37:16;;;;;;;3.15;1.52;;;;;;;;;;6298976;28;20051;-79
2023/07/23 12:40:19;;;;;;;3.20;1.63;;;;;;;;;;6296655;28;20036;-78
2023/07/23 12:43:21;;;;;;;2.78;1.50;;;;;;;;;;6305956;28;20040;-79
2023/07/23 12:46:23;;;;;;;3.10;1.55;;;;;;;;;;6248156;28;20047;-79
2023/07/23 12:49:25;;;;;;;3.58;1.70;;;;;;;;;;6276875;28;20728;-79
2023/07/23 12:52:27;;;;;;;2.42;1.70;;;;;;;;;;6300287;28;20113;-81
2023/07/23 12:55:28;;;;;;;3.33;1.75;;;;;;;;;;6280482;28;20044;-81
2023/07/23 12:58:30;;;;;;;3.03;1.60;;;;;;;;;;6277844;28;20040;-81
2023/07/23 13:01:32;;;;;;;1.77;1.45;;;;;;;;;;6293671;28;20036;-79
2023/07/23 13:04:34;;;;;;;2.00;1.33;;;;;;;;;;6302296;28;20272;-79
2023/07/23 13:07:35;;;;;;;1.85;1.52;;;;;;;;;;6276416;28;20438;-79
2023/07/23 13:10:37;;;;;;;3.28;1.60;;;;;;;;;;6296655;28;20470;-81
2023/07/23 13:13:39;;;;;;;3.13;1.70;;;;;;;;;;6293135;28;20733;-79
2023/07/23 13:16:40;;;;;;;3.05;1.55;;;;;;;;;;6280757;28;20082;-78
2023/07/23 13:19:42;;;;;;;3.17;1.70;;;;;;;;;;6300423;28;20048;-79
2023/07/23 13:22:44;;;;;;;1.50;1.33;;;;;;;;;;6273512;28;20053;-79
2023/07/23 13:25:45;;;;;;;2.58;1.45;;;;;;;;;;6299250;28;20101;-80
2023/07/23 13:28:47;;;;;;;1.60;1.30;;;;;;;;;;6295267;28;20053;-79
2023/07/23 13:31:49;;;;;;;2.87;1.40;;;;;;;;;;6275923;28;20040;-81
2023/07/23 13:34:51;;;;;;;2.30;1.58;;;;;;;;;;6286474;28;20088;-80
2023/07/23 13:37:52;;;;;;;2.47;1.40;;;;;;;;;;6299029;28;20079;-80
2023/07/23 13:40:54;;;;;;;2.57;1.70;;;;;;;;;;6276682;28;20040;-81
2023/07/23 13:43:55;;;;;;;2.15;1.15;;;;;;;;;;6291261;28;20052;-80
2023/07/23 13:46:58;;;;;;;2.88;1.60;;;;;;;;;;6293634;28;20121;-80
2023/07/23 13:49:59;;;;;;;2.47;1.30;;;;;;;;;;6284447;28;20044;-81
2023/07/23 13:53:01;;;;;;;2.08;1.27;;;;;;;;;;6299869;28;20039;-79
2023/07/23 13:56:03;;;;;;;1.50;1.40;;;;;;;;;;6283488;28;20048;-81
2023/07/23 13:59:05;;;;;;;1.35;1.17;;;;;;;;;;6300944;28;20052;-81
2023/07/23 14:02:06;;;;;;;2.47;1.55;;;;;;;;;;6295533;28;20051;-80
2023/07/23 14:05:19;;;;;;;1.60;1.30;;;;;;;;;;6305445;28;20044;-79
2023/07/23 14:08:21;;;;;;;;;;;;;;;;;;6290046;28;20472;-79
2023/07/23 14:11:22;;;;;;;1.27;1.17;;;;;;;;;;6290842;28;19924;-81
2023/07/23 14:14:24;;;;;;;3.47;1.15;;;;;;;;;;6300698;28;20051;-81
2023/07/23 14:17:27;;;;;;;2.67;1.25;;;;;;;;;;6270860;28;20592;-81
2023/07/23 14:20:30;;;;;;;1.45;1.17;;;;;;;;;;6294657;28;20051;-82
2023/07/23 14:23:33;;;;;;;1.58;1.48;;;;;;;;;;6321871;28;20043;-80
2023/07/23 14:26:35;;;;;;;1.83;1.30;;;;;;;;;;6306084;28;20051;-83
2023/07/23 14:29:36;;;;;;;1.33;1.20;;;;;;;;;;6318035;28;20058;-82
2023/07/23 14:32:38;;;;;;;2.13;1.40;;;;;;;;;;6332188;28;20461;-82
2023/07/23 14:35:40;;;;;;;1.93;1.40;;;;;;;;;;6318157;28;20056;-81
2023/07/23 14:38:42;;;;;;;3.63;1.33;;;;;;;;;;6286495;28;20053;-79
2023/07/23 14:41:47;;;;;;;1.92;1.38;;;;;;;;;;6305178;28;20052;-79
2023/07/23 14:44:49;;;;;;;2.22;1.40;;;;;;;;;;6285704;28;20043;-80
2023/07/23 14:47:51;;;;;;;1.50;1.17;;;;;;;;;;6298429;28;20047;-80
2023/07/23 14:50:52;;;;;;;3.35;1.50;;;;;;;;;;6282629;28;20712;-81
2023/07/23 14:53:54;;;;;;;1.67;1.33;;;;;;;;;;6304351;28;20624;-80
2023/07/23 14:56:56;;;;;;;2.03;1.33;;;;;;;;;;6280836;28;20044;-79
2023/07/23 14:59:57;;;;;;;1.73;1.15;;;;;;;;;;6300159;28;20043;-81
2023/07/23 15:02:59;;;;;;;1.50;1.30;;;;;;;;;;6302386;28;20686;-80
2023/07/23 15:06:00;;;;;;;2.03;1.20;;;;;;;;;;6304289;28;20221;-81
2023/07/23 15:09:02;;;;;;;1.13;1.02;;;;;;;;;;6302018;28;20047;-80
2023/07/23 15:12:05;;;;;;;1.60;1.23;;;;;;;;;;6298614;28;20043;-79
2023/07/23 15:15:08;;;;;;;1.63;1.08;;;;;;;;;;6280593;28;20055;-77
2023/07/23 15:18:10;;;;;;;2.00;1.27;;;;;;;;;;6286516;28;20143;-76
2023/07/23 15:21:12;;;;;;;3.22;1.00;;;;;;;;;;6304785;28;20048;-80
2023/07/23 15:24:16;;;;;;;2.03;1.20;;;;;;;;;;6298758;28;20138;-82
2023/07/23 15:27:19;;;;;;;1.17;0.98;;;;;;;;;;6290530;28;20155;-79
2023/07/23 15:30:20;;;;;;;1.15;1.05;;;;;;;;;;6306150;28;20068;-77
2023/07/23 15:33:22;;;;;;;2.03;1.10;;;;;;;;;;6283666;28;20414;-80
2023/07/23 15:36:24;;;;;;;1.48;1.20;;;;;;;;;;6282769;28;20045;-80
2023/07/23 15:39:25;;;;;;;2.57;1.10;;;;;;;;;;6301812;28;20060;-79
2023/07/23 15:42:27;;;;;;;4.03;1.48;;;;;;;;;;6303291;28;20114;-78
2023/07/23 15:45:28;;;;;;;2.33;1.40;;;;;;;;;;6300263;28;20561;-79
2023/07/23 15:48:30;;;;;;;4.20;1.48;;;;;;;;;;6302379;28;20040;-80
2023/07/23 15:51:32;;;;;;;1.58;1.02;;;;;;;;;;6299466;28;20040;-80
2023/07/23 15:54:34;;;;;;;2.13;1.10;;;;;;;;;;6300747;28;20114;-80
2023/07/23 15:57:35;;;;;;;2.30;1.27;;;;;;;;;;6296290;28;20044;-79
2023/07/23 16:00:37;;;;;;;2.40;1.20;;;;;;;;;;6298431;28;20047;-79
2023/07/23 16:03:38;;;;;;;1.40;1.30;;;;;;;;;;6302534;28;20690;-80
2023/07/23 16:06:40;;;;;;;3.00;1.30;;;;;;;;;;6299763;28;20052;-80
2023/07/23 16:09:42;;;;;;;1.90;1.38;;;;;;;;;;6297716;28;20733;-81
2023/07/23 16:12:43;;;;;;;1.40;1.30;;;;;;;;;;6296989;28;20055;-80
2023/07/23 16:15:45;;;;;;;2.42;1.33;;;;;;;;;;6303468;28;20048;-79
2023/07/23 16:18:47;;;;;;;2.10;1.30;;;;;;;;;;6301904;28;20050;-79
2023/07/23 16:21:49;;;;;;;1.70;1.25;;;;;;;;;;6298387;28;20048;-79
2023/07/23 16:24:50;;;;;;;2.17;1.15;;;;;;;;;;6290709;28;20049;-79
2023/07/23 16:27:52;;;;;;;1.92;1.27;;;;;;;;;;6299197;28;20052;-80
2023/07/23 16:30:54;;;;;;;2.08;1.30;;;;;;;;;;6305906;28;20071;-79
2023/07/23 16:33:57;;;;;;;2.95;1.08;;;;;;;;;;6302956;28;20044;-80
2023/07/23 16:37:01;;;;;;;2.13;1.13;;;;;;;;;;6282772;28;20418;-81
2023/07/23 16:40:06;;;;;;;1.67;1.20;;;;;;;;;;6309823;28;20414;-80
2023/07/23 16:43:10;;;;;;;1.77;1.25;;;;;;;;;;6289797;28;20048;-79
2023/07/23 16:46:11;;;;;;;1.20;1.00;;;;;;;;;;6320843;28;20066;-80
2023/07/23 16:49:13;;;;;;;2.08;1.65;;;;;;;;;;6309505;28;20047;-78
2023/07/23 16:52:14;;;;;;;1.50;1.10;;;;;;;;;;6297421;28;20044;-78
2023/07/23 16:55:16;;;;;;;2.70;1.27;;;;;;;;;;6305084;28;20055;-81
2023/07/23 16:58:20;;;;;;;2.47;1.10;;;;;;;;;;6281515;28;20048;-79
2023/07/23 17:01:21;;;;;;;1.40;1.20;;;;;;;;;;6295904;28;20032;-78
2023/07/23 17:04:23;;;;;;;1.60;1.05;;;;;;;;;;6281816;28;20048;-80
2023/07/23 17:07:25;;;;;;;1.65;1.20;;;;;;;;;;6299656;28;20055;-79
2023/07/23 17:10:26;;;;;;;2.78;1.20;;;;;;;;;;6280185;28;20145;-80
2023/07/23 17:13:28;;;;;;;1.50;1.10;;;;;;;;;;6294280;28;20064;-79
2023/07/23 17:16:30;;;;;;;1.98;1.10;;;;;;;;;;6305925;28;20066;-78
2023/07/23 17:19:36;;;;;;;1.17;1.00;;;;;;;;;;6299451;28;20051;-80
2023/07/23 17:22:38;;;;;;;2.08;1.30;;;;;;;;;;6295589;28;20036;-79
2023/07/23 17:25:39;;;;;;;1.98;1.23;;;;;;;;;;6291361;28;20052;-80
2023/07/23 17:28:41;;;;;;;3.05;1.00;;;;;;;;;;6304430;28;20044;-80
2023/07/23 17:31:42;;;;;;;1.73;1.10;;;;;;;;;;6298923;28;20037;-79
2023/07/23 17:34:44;;;;;;;1.85;1.30;;;;;;;;;;6277417;28;20533;-78
2023/07/23 17:37:47;;;;;;;1.38;1.10;;;;;;;;;;6298695;28;20071;-80
2023/07/23 17:40:49;;;;;;;3.42;1.17;;;;;;;;;;6299190;28;20070;-79
2023/07/23 17:43:51;;;;;;;1.90;1.13;;;;;;;;;;6280791;28;20414;-78
2023/07/23 17:46:52;;;;;;;2.13;1.00;;;;;;;;;;6279315;28;20051;-78
2023/07/23 17:49:54;;;;;;;1.45;1.30;;;;;;;;;;6298005;28;20058;-79
2023/07/23 17:52:56;;;;;;;2.20;1.08;;;;;;;;;;6284928;28;20090;-80
2023/07/23 17:55:57;;;;;;;1.25;0.88;;;;;;;;;;6281467;28;20052;-79
2023/07/23 17:59:00;;;;;;;1.67;1.13;;;;;;;;;;6302292;28;20044;-77
2023/07/23 18:02:01;;;;;;;1.30;1.15;;;;;;;;;;6314604;28;20044;-77
2023/07/23 18:05:03;;;;;;;1.90;1.10;;;;;;;;;;6288239;28;20529;-77
2023/07/23 18:08:05;;;;;;;1.40;1.00;;;;;;;;;;6289820;28;20067;-77
2023/07/23 18:11:07;;;;;;;1.42;1.00;;;;;;;;;;6295855;28;20100;-77
2023/07/23 18:14:08;;;;;;;1.10;0.80;;;;;;;;;;6302948;28;20055;-79
2023/07/23 18:17:10;;;;;;;2.17;1.40;;;;;;;;;;6282716;28;20447;-77